Time;durP1;ratioP1;P1;durP2;ratioP2;P2;SDS_P1;SDS_P2;PMS_P1;PMS_P2;Temp;Humidity;BMP_temperature;BMP_pressure;BME280_temperature;BME280_humidity;BME280_pressure;Samples;Min_cycle;Max_cycle;Signal;HPM_P1;HPM_P2
2023/12/05 00:01:23;;;;;;;15.20;7.03;;;;;;;;;;5030100;28;20026;-69
2023/12/05 00:04:09;;;;;;;10.60;5.88;;;;;;;;;;5016123;28;20388;-69
2023/12/05 00:06:54;;;;;;;17.27;7.50;;;;;;;;;;5015863;28;20053;-69
2023/12/05 00:09:40;;;;;;;19.48;7.85;;;;;;;;;;5038573;28;20021;-69
2023/12/05 00:12:26;;;;;;;18.70;7.55;;;;;;;;;;5031791;28;20030;-69
2023/12/05 00:15:12;;;;;;;20.08;7.60;;;;;;;;;;5015538;28;20556;-69
2023/12/05 00:17:57;;;;;;;13.70;6.03;;;;;;;;;;5015125;28;20154;-68
2023/12/05 00:20:43;;;;;;;16.42;6.90;;;;;;;;;;5028463;28;20132;-68
2023/12/05 00:23:29;;;;;;;11.07;6.90;;;;;;;;;;5053624;28;20021;-69
2023/12/05 00:26:15;;;;;;;14.70;6.15;;;;;;;;;;5043681;28;20386;-69
2023/12/05 00:29:00;;;;;;;15.25;6.60;;;;;;;;;;5035049;28;20060;-69
2023/12/05 00:31:47;;;;;;;15.77;6.40;;;;;;;;;;5054108;28;20060;-69
2023/12/05 00:34:33;;;;;;;16.10;7.07;;;;;;;;;;5044994;28;20025;-69
2023/12/05 00:37:18;;;;;;;18.23;6.78;;;;;;;;;;5015456;28;20372;-69
2023/12/05 00:40:04;;;;;;;16.30;6.78;;;;;;;;;;5015303;28;20407;-69
2023/12/05 00:42:50;;;;;;;19.88;7.32;;;;;;;;;;5019972;28;20025;-68
2023/12/05 00:45:36;;;;;;;17.88;8.35;;;;;;;;;;5053960;28;20031;-69
2023/12/05 00:48:22;;;;;;;18.67;8.02;;;;;;;;;;5053855;28;20032;-69
2023/12/05 00:51:07;;;;;;;19.40;8.02;;;;;;;;;;5053729;28;20111;-69
2023/12/05 00:53:53;;;;;;;15.45;7.18;;;;;;;;;;5053955;28;20028;-69
2023/12/05 00:56:39;;;;;;;19.40;7.15;;;;;;;;;;5014767;28;20029;-69
2023/12/05 00:59:24;;;;;;;16.20;6.97;;;;;;;;;;5038947;28;20031;-68
2023/12/05 01:02:10;;;;;;;21.00;8.38;;;;;;;;;;5054981;28;20052;-69
2023/12/05 01:04:55;;;;;;;13.85;7.38;;;;;;;;;;5053661;28;20470;-69
2023/12/05 01:07:41;;;;;;;20.52;8.20;;;;;;;;;;5052462;28;20025;-68
2023/12/05 01:10:27;;;;;;;23.70;7.63;;;;;;;;;;5053856;28;20029;-69
2023/12/05 01:13:12;;;;;;;15.65;7.70;;;;;;;;;;5034021;28;20053;-68
2023/12/05 01:15:58;;;;;;;18.75;7.53;;;;;;;;;;5013359;28;20399;-69
2023/12/05 01:18:44;;;;;;;16.25;8.57;;;;;;;;;;5018674;28;20056;-69
2023/12/05 01:21:29;;;;;;;17.27;7.57;;;;;;;;;;5013586;28;20026;-69
2023/12/05 01:24:15;;;;;;;17.90;7.25;;;;;;;;;;5019852;28;20017;-68
2023/12/05 01:27:02;;;;;;;14.68;6.65;;;;;;;;;;5045925;28;20079;-69
2023/12/05 01:29:47;;;;;;;20.20;7.28;;;;;;;;;;5035806;28;20025;-69
2023/12/05 01:32:34;;;;;;;18.30;7.15;;;;;;;;;;5032169;28;20518;-69
2023/12/05 01:35:19;;;;;;;14.20;7.10;;;;;;;;;;5026879;28;20041;-69
2023/12/05 01:38:05;;;;;;;19.48;6.03;;;;;;;;;;5033813;28;20032;-69
2023/12/05 01:40:51;;;;;;;18.15;7.18;;;;;;;;;;5036889;28;20513;-69
2023/12/05 01:43:36;;;;;;;20.35;7.03;;;;;;;;;;5030954;28;20443;-69
2023/12/05 01:46:22;;;;;;;18.23;6.50;;;;;;;;;;5033561;28;20021;-69
2023/12/05 01:49:08;;;;;;;16.83;7.05;;;;;;;;;;5033235;28;20108;-69
2023/12/05 01:51:53;;;;;;;20.27;7.53;;;;;;;;;;5033363;28;20037;-69
2023/12/05 01:54:39;;;;;;;19.25;6.53;;;;;;;;;;5033787;28;20103;-69
2023/12/05 01:57:25;;;;;;;20.05;8.23;;;;;;;;;;5019975;28;20026;-69
2023/12/05 02:00:11;;;;;;;15.18;6.85;;;;;;;;;;5013594;28;20026;-69
2023/12/05 02:02:57;;;;;;;19.63;7.28;;;;;;;;;;4999086;28;20076;-69
2023/12/05 02:05:43;;;;;;;14.32;6.50;;;;;;;;;;5011929;28;20017;-69
2023/12/05 02:08:30;;;;;;;16.67;7.22;;;;;;;;;;4998478;28;20022;-68
2023/12/05 02:11:16;;;;;;;17.08;6.43;;;;;;;;;;5012948;28;20108;-69
2023/12/05 02:14:02;;;;;;;19.85;7.53;;;;;;;;;;5012526;28;20421;-69
2023/12/05 02:16:59;;;;;;;17.58;6.72;;;;;;;;;;5013455;28;20442;-69
2023/12/05 02:19:53;;;;;;;16.58;6.47;;;;;;;;;;4998316;28;20029;-69
2023/12/05 02:23:01;;;;;;;18.25;7.00;;;;;;;;;;4998472;28;20025;-68
2023/12/05 02:25:57;;;;;;;14.20;6.50;;;;;;;;;;5013272;28;20021;-69
2023/12/05 02:28:43;;;;;;;17.02;7.13;;;;;;;;;;5018987;28;20029;-68
2023/12/05 02:31:29;;;;;;;15.30;7.43;;;;;;;;;;5015785;28;20022;-69
2023/12/05 02:34:14;;;;;;;16.15;6.25;;;;;;;;;;5052006;28;20029;-69
2023/12/05 02:37:10;;;;;;;23.48;7.03;;;;;;;;;;5038164;28;20021;-69
2023/12/05 02:40:17;;;;;;;16.58;7.60;;;;;;;;;;5039986;28;20036;-69
2023/12/05 02:43:04;;;;;;;18.92;7.93;;;;;;;;;;5016881;28;20088;-69
2023/12/05 02:45:51;;;;;;;16.92;8.07;;;;;;;;;;5017947;28;20025;-69
2023/12/05 02:48:37;;;;;;;17.23;6.80;;;;;;;;;;5005998;28;20403;-68
2023/12/05 02:51:23;;;;;;;15.55;7.85;;;;;;;;;;5012082;28;20029;-69
2023/12/05 02:54:08;;;;;;;17.92;7.50;;;;;;;;;;4998055;28;20037;-68
2023/12/05 02:56:54;;;;;;;25.52;8.32;;;;;;;;;;4997316;28;20091;-69
2023/12/05 02:59:40;;;;;;;18.70;7.40;;;;;;;;;;5013358;28;20061;-69
2023/12/05 03:02:25;;;;;;;15.65;7.25;;;;;;;;;;5012907;28;20503;-69
2023/12/05 03:05:11;;;;;;;17.17;7.93;;;;;;;;;;5012036;28;20022;-69
2023/12/05 03:07:56;;;;;;;20.63;7.47;;;;;;;;;;4998809;28;20032;-69
2023/12/05 03:10:42;;;;;;;16.80;7.28;;;;;;;;;;5012406;28;20026;-69
2023/12/05 03:13:28;;;;;;;21.25;8.45;;;;;;;;;;5012677;28;20030;-69
2023/12/05 03:16:13;;;;;;;18.70;7.45;;;;;;;;;;5013058;28;20456;-69
2023/12/05 03:18:59;;;;;;;20.23;8.55;;;;;;;;;;5013359;28;20045;-69
2023/12/05 03:21:45;;;;;;;18.20;9.10;;;;;;;;;;5011290;28;20026;-69
2023/12/05 03:24:30;;;;;;;20.48;7.80;;;;;;;;;;5012164;28;20026;-69
2023/12/05 03:27:16;;;;;;;21.25;8.05;;;;;;;;;;5012525;28;20022;-69
2023/12/05 03:30:03;;;;;;;24.92;8.18;;;;;;;;;;5012841;28;20542;-69
2023/12/05 03:32:48;;;;;;;19.45;7.63;;;;;;;;;;5011433;28;20041;-69
2023/12/05 03:35:34;;;;;;;16.67;7.18;;;;;;;;;;5013177;28;20034;-69
2023/12/05 03:38:19;;;;;;;19.33;8.23;;;;;;;;;;5015414;28;20018;-69
2023/12/05 03:41:06;;;;;;;17.77;7.55;;;;;;;;;;5016297;28;20109;-68
2023/12/05 03:43:51;;;;;;;18.42;7.95;;;;;;;;;;5016813;28;20097;-69
2023/12/05 03:46:37;;;;;;;19.23;7.57;;;;;;;;;;5015400;28;20022;-69
2023/12/05 03:49:23;;;;;;;17.45;7.07;;;;;;;;;;5016463;28;20395;-69
2023/12/05 03:52:08;;;;;;;21.58;6.43;;;;;;;;;;5015491;28;20026;-69
2023/12/05 03:54:54;;;;;;;17.60;6.35;;;;;;;;;;5016033;28;20088;-69
2023/12/05 03:57:40;;;;;;;18.40;7.72;;;;;;;;;;5016534;28;20498;-69
2023/12/05 04:00:25;;;;;;;16.65;7.97;;;;;;;;;;5015903;28;20446;-69
2023/12/05 04:03:11;;;;;;;21.05;7.43;;;;;;;;;;5016115;28;20080;-69
2023/12/05 04:05:57;;;;;;;18.30;7.13;;;;;;;;;;5015019;28;20054;-69
2023/12/05 04:08:42;;;;;;;19.75;7.28;;;;;;;;;;5015901;28;20160;-69
2023/12/05 04:11:32;;;;;;;15.48;7.82;;;;;;;;;;5016100;28;20076;-69
2023/12/05 04:14:19;;;;;;;18.20;7.75;;;;;;;;;;5015357;28;20105;-68
2023/12/05 04:17:04;;;;;;;18.35;8.02;;;;;;;;;;5015075;28;20104;-69
2023/12/05 04:19:50;;;;;;;15.20;7.15;;;;;;;;;;5035132;28;20036;-69
2023/12/05 04:22:36;;;;;;;16.17;6.93;;;;;;;;;;5014822;28;20025;-69
2023/12/05 04:25:21;;;;;;;22.23;6.68;;;;;;;;;;5032607;28;20052;-68
2023/12/05 04:28:07;;;;;;;20.45;7.18;;;;;;;;;;5043837;28;20033;-69
2023/12/05 04:30:52;;;;;;;26.30;8.60;;;;;;;;;;5022759;28;20025;-69
2023/12/05 04:33:39;;;;;;;17.98;7.63;;;;;;;;;;5014933;28;20030;-69
2023/12/05 04:36:25;;;;;;;16.67;6.95;;;;;;;;;;5013764;28;20029;-69
2023/12/05 04:39:12;;;;;;;20.55;8.30;;;;;;;;;;5015385;28;20036;-69
2023/12/05 04:41:58;;;;;;;17.83;7.45;;;;;;;;;;5015593;28;20453;-69
2023/12/05 04:44:43;;;;;;;22.45;8.35;;;;;;;;;;5015907;28;20064;-69
2023/12/05 04:47:29;;;;;;;20.73;8.90;;;;;;;;;;5013472;28;20029;-69
2023/12/05 04:50:15;;;;;;;26.02;9.15;;;;;;;;;;5039189;28;20098;-69
2023/12/05 04:53:00;;;;;;;22.90;7.85;;;;;;;;;;5052879;28;20403;-69
2023/12/05 04:55:46;;;;;;;24.63;9.48;;;;;;;;;;5053295;28;20021;-69
2023/12/05 04:58:32;;;;;;;21.85;9.63;;;;;;;;;;5053609;28;20381;-69
2023/12/05 05:01:17;;;;;;;21.60;9.38;;;;;;;;;;5053990;28;20028;-69
2023/12/05 05:04:03;;;;;;;18.88;8.32;;;;;;;;;;5037923;28;20014;-69
2023/12/05 05:06:49;;;;;;;23.00;9.85;;;;;;;;;;5033918;28;20030;-69
2023/12/05 05:09:35;;;;;;;24.50;9.65;;;;;;;;;;5034852;28;20597;-69
2023/12/05 05:12:20;;;;;;;26.23;9.52;;;;;;;;;;5034393;28;20030;-69
2023/12/05 05:15:07;;;;;;;25.60;9.93;;;;;;;;;;5033452;28;20030;-69
2023/12/05 05:17:52;;;;;;;24.08;9.48;;;;;;;;;;5033313;28;20083;-69
2023/12/05 05:20:38;;;;;;;24.15;10.18;;;;;;;;;;5030323;28;20014;-69
2023/12/05 05:23:24;;;;;;;26.90;9.55;;;;;;;;;;5013719;28;20562;-68
2023/12/05 05:26:09;;;;;;;23.88;10.20;;;;;;;;;;5013049;28;20030;-69
2023/12/05 05:28:55;;;;;;;28.50;10.43;;;;;;;;;;5012852;28;20053;-68
2023/12/05 05:31:40;;;;;;;28.30;9.88;;;;;;;;;;5013037;28;20480;-69
2023/12/05 05:34:26;;;;;;;27.50;10.43;;;;;;;;;;5014055;28;20029;-68
2023/12/05 05:37:12;;;;;;;29.80;10.70;;;;;;;;;;5034050;28;20379;-69
2023/12/05 05:39:57;;;;;;;27.70;10.25;;;;;;;;;;5033584;28;20032;-69
2023/12/05 05:42:43;;;;;;;24.25;9.85;;;;;;;;;;5033579;28;20021;-68
2023/12/05 05:45:29;;;;;;;26.02;10.68;;;;;;;;;;5033533;28;20025;-69
2023/12/05 05:48:15;;;;;;;27.83;10.82;;;;;;;;;;5034402;28;20115;-68
2023/12/05 05:51:00;;;;;;;31.27;12.02;;;;;;;;;;5013123;28;20076;-69
2023/12/05 05:53:46;;;;;;;27.23;12.00;;;;;;;;;;5013564;28;20029;-69
2023/12/05 05:56:38;;;;;;;35.08;12.95;;;;;;;;;;5033716;28;20030;-69
2023/12/05 05:59:23;;;;;;;27.13;10.35;;;;;;;;;;5027293;28;20040;-69
2023/12/05 06:02:12;;;;;;;30.70;10.18;;;;;;;;;;5044363;28;20063;-69
2023/12/05 06:04:57;;;;;;;34.72;11.85;;;;;;;;;;5053076;28;20017;-69
2023/12/05 06:07:43;;;;;;;30.20;12.07;;;;;;;;;;5045377;28;20119;-69
2023/12/05 06:10:29;;;;;;;30.77;12.70;;;;;;;;;;5032466;28;20018;-69
2023/12/05 06:13:14;;;;;;;37.50;13.15;;;;;;;;;;5020462;28;20026;-69
2023/12/05 06:16:01;;;;;;;29.52;14.00;;;;;;;;;;5016932;28;20471;-69
2023/12/05 06:18:46;;;;;;;40.63;14.63;;;;;;;;;;5032950;28;20025;-69
2023/12/05 06:21:32;;;;;;;36.95;14.48;;;;;;;;;;5032093;28;20021;-69
2023/12/05 06:24:18;;;;;;;38.45;14.88;;;;;;;;;;5032573;28;20049;-68
2023/12/05 06:27:04;;;;;;;38.25;14.43;;;;;;;;;;5029756;28;20026;-69
2023/12/05 06:29:50;;;;;;;39.30;14.93;;;;;;;;;;5013402;28;20117;-69
2023/12/05 06:32:36;;;;;;;38.50;14.40;;;;;;;;;;5030849;28;20037;-69
2023/12/05 06:35:21;;;;;;;41.28;14.25;;;;;;;;;;5114786;22;20061;-67
2023/12/05 06:38:07;;;;;;;37.45;14.32;;;;;;;;;;5012679;28;20026;-67
2023/12/05 06:40:52;;;;;;;30.70;14.13;;;;;;;;;;5009921;28;20039;-67
2023/12/05 06:43:38;;;;;;;35.08;13.88;;;;;;;;;;4996503;28;20531;-67
2023/12/05 06:46:24;;;;;;;41.70;14.85;;;;;;;;;;4973750;28;20039;-67
2023/12/05 06:49:12;;;;;;;36.40;14.32;;;;;;;;;;4996447;28;20099;-67
2023/12/05 06:52:00;;;;;;;35.50;12.80;;;;;;;;;;5012130;28;20022;-67
2023/12/05 06:54:46;;;;;;;36.72;13.95;;;;;;;;;;5012457;28;20022;-67
2023/12/05 06:57:32;;;;;;;35.92;12.68;;;;;;;;;;4991211;28;20423;-67
2023/12/05 07:00:18;;;;;;;40.33;14.85;;;;;;;;;;4993619;28;20026;-67
2023/12/05 07:03:04;;;;;;;37.25;14.25;;;;;;;;;;4992643;28;20029;-67
2023/12/05 07:05:49;;;;;;;36.80;14.45;;;;;;;;;;4974790;28;20030;-67
2023/12/05 07:08:35;;;;;;;31.95;13.43;;;;;;;;;;4973549;28;20058;-67
2023/12/05 07:11:20;;;;;;;37.47;15.05;;;;;;;;;;4994057;28;20492;-68
2023/12/05 07:14:08;;;;;;;43.35;15.93;;;;;;;;;;4981485;28;20101;-67
2023/12/05 07:16:53;;;;;;;42.30;15.15;;;;;;;;;;5000185;28;20031;-67
2023/12/05 07:19:39;;;;;;;39.67;14.70;;;;;;;;;;5008265;28;20025;-67
2023/12/05 07:22:26;;;;;;;37.65;13.43;;;;;;;;;;5016091;28;20037;-67
2023/12/05 07:25:11;;;;;;;34.92;14.95;;;;;;;;;;5000805;28;20018;-68
2023/12/05 07:27:57;;;;;;;46.00;14.65;;;;;;;;;;5015925;28;20050;-67
2023/12/05 07:30:43;;;;;;;38.72;15.32;;;;;;;;;;4997965;28;20503;-67
2023/12/05 07:33:28;;;;;;;34.30;13.90;;;;;;;;;;4981336;28;20026;-67
2023/12/05 07:36:14;;;;;;;48.50;16.67;;;;;;;;;;4991379;28;20512;-67
2023/12/05 07:38:59;;;;;;;45.83;15.85;;;;;;;;;;4997653;28;20030;-67
2023/12/05 07:41:45;;;;;;;38.83;16.15;;;;;;;;;;4986875;28;20022;-67
2023/12/05 07:44:31;;;;;;;40.67;15.75;;;;;;;;;;5002598;28;20034;-67
2023/12/05 07:47:17;;;;;;;42.58;14.57;;;;;;;;;;4983425;28;20029;-68
2023/12/05 07:50:03;;;;;;;43.70;15.80;;;;;;;;;;4999441;28;20027;-67
2023/12/05 07:52:52;;;;;;;34.60;14.65;;;;;;;;;;4994754;28;20110;-68
2023/12/05 07:55:37;;;;;;;40.22;16.83;;;;;;;;;;4994521;28;20089;-67
2023/12/05 07:58:23;;;;;;;35.50;15.48;;;;;;;;;;5000834;28;20081;-67
2023/12/05 08:01:08;;;;;;;39.50;15.93;;;;;;;;;;4995745;28;20026;-68
2023/12/05 08:03:57;;;;;;;36.13;14.73;;;;;;;;;;4996233;28;20029;-68
2023/12/05 08:06:43;;;;;;;40.45;15.85;;;;;;;;;;4996197;28;20531;-67
2023/12/05 08:09:28;;;;;;;36.95;15.95;;;;;;;;;;4995597;28;20037;-67
2023/12/05 08:12:14;;;;;;;36.72;14.05;;;;;;;;;;4995638;28;20096;-67
2023/12/05 08:15:00;;;;;;;39.30;15.98;;;;;;;;;;4994446;28;20491;-67
2023/12/05 08:17:45;;;;;;;42.00;16.13;;;;;;;;;;4982985;28;20094;-67
2023/12/05 08:20:31;;;;;;;42.40;16.45;;;;;;;;;;4976052;28;20404;-67
2023/12/05 08:23:19;;;;;;;40.10;17.10;;;;;;;;;;5005029;28;20022;-67
2023/12/05 08:26:05;;;;;;;45.53;16.92;;;;;;;;;;5014851;28;20030;-67
2023/12/05 08:28:50;;;;;;;38.75;14.95;;;;;;;;;;5005174;28;20551;-67
2023/12/05 08:31:36;;;;;;;38.97;15.75;;;;;;;;;;5011156;28;20021;-67
2023/12/05 08:34:22;;;;;;;35.45;15.07;;;;;;;;;;4976908;28;20045;-67
2023/12/05 08:37:07;;;;;;;36.88;15.77;;;;;;;;;;5003688;28;20026;-67
2023/12/05 08:39:53;;;;;;;39.97;16.25;;;;;;;;;;5002647;28;20053;-68
2023/12/05 08:42:42;;;;;;;36.65;15.60;;;;;;;;;;5008683;28;20105;-68
2023/12/05 08:45:28;;;;;;;47.03;17.02;;;;;;;;;;4981286;28;20104;-67
2023/12/05 08:48:13;;;;;;;46.22;16.63;;;;;;;;;;4995704;28;20403;-68
2023/12/05 08:50:59;;;;;;;41.58;15.98;;;;;;;;;;4995256;28;20113;-68
2023/12/05 08:53:45;;;;;;;40.42;15.45;;;;;;;;;;4994762;28;20030;-67
2023/12/05 08:56:30;;;;;;;48.72;17.88;;;;;;;;;;4994283;28;20045;-67
2023/12/05 08:59:16;;;;;;;41.28;16.55;;;;;;;;;;5013970;28;20026;-68
2023/12/05 09:02:01;;;;;;;39.97;16.38;;;;;;;;;;5014134;28;20510;-67
2023/12/05 09:04:47;;;;;;;41.60;16.50;;;;;;;;;;5000266;28;20026;-68
2023/12/05 09:07:33;;;;;;;44.17;16.63;;;;;;;;;;4999292;28;20499;-68
2023/12/05 09:10:18;;;;;;;37.95;16.38;;;;;;;;;;4981875;28;20109;-67
2023/12/05 09:13:04;;;;;;;37.67;16.63;;;;;;;;;;4997020;28;20037;-68
2023/12/05 09:15:50;;;;;;;45.05;17.27;;;;;;;;;;4995578;28;20066;-68
2023/12/05 09:18:36;;;;;;;43.45;17.95;;;;;;;;;;5003041;28;20496;-68
2023/12/05 09:21:21;;;;;;;41.50;16.63;;;;;;;;;;4995004;28;20106;-68
2023/12/05 09:24:08;;;;;;;48.63;18.70;;;;;;;;;;4994623;28;20022;-68
2023/12/05 09:26:54;;;;;;;50.13;17.85;;;;;;;;;;4973353;28;20106;-67
2023/12/05 09:29:39;;;;;;;38.58;15.40;;;;;;;;;;4960844;28;20027;-67
2023/12/05 09:32:25;;;;;;;41.35;16.83;;;;;;;;;;4988487;28;20053;-67
2023/12/05 09:35:11;;;;;;;40.95;16.90;;;;;;;;;;4997065;28;20034;-67
2023/12/05 09:37:56;;;;;;;37.05;16.00;;;;;;;;;;5013636;28;20021;-67
2023/12/05 09:40:42;;;;;;;48.60;17.38;;;;;;;;;;4997311;28;20034;-67
2023/12/05 09:43:28;;;;;;;43.22;17.88;;;;;;;;;;4978756;28;20022;-67
2023/12/05 09:46:16;;;;;;;40.53;17.35;;;;;;;;;;4980260;28;20132;-67
2023/12/05 09:49:05;;;;;;;47.92;17.33;;;;;;;;;;4993376;28;20021;-67
2023/12/05 09:51:52;;;;;;;47.92;17.88;;;;;;;;;;4999014;28;20026;-67
2023/12/05 09:54:37;;;;;;;48.33;16.95;;;;;;;;;;4998588;28;20026;-67
2023/12/05 09:57:23;;;;;;;49.38;18.40;;;;;;;;;;5012895;28;20038;-67
2023/12/05 10:00:09;;;;;;;47.95;18.70;;;;;;;;;;5012436;28;20053;-67
2023/12/05 10:02:56;;;;;;;44.50;19.90;;;;;;;;;;5013047;28;20026;-67
2023/12/05 10:05:43;;;;;;;49.70;19.88;;;;;;;;;;4998790;28;20040;-67
2023/12/05 10:08:29;;;;;;;44.08;18.98;;;;;;;;;;4998565;28;20025;-67
2023/12/05 10:11:15;;;;;;;47.10;19.10;;;;;;;;;;4995790;28;20072;-67
2023/12/05 10:14:02;;;;;;;44.17;17.35;;;;;;;;;;4978660;28;20014;-67
2023/12/05 10:16:48;;;;;;;43.13;18.35;;;;;;;;;;4993555;28;20034;-67
2023/12/05 10:19:35;;;;;;;51.05;18.48;;;;;;;;;;4979046;28;20034;-68
2023/12/05 10:22:21;;;;;;;53.05;19.55;;;;;;;;;;4992700;28;20048;-67
2023/12/05 10:25:08;;;;;;;50.85;19.10;;;;;;;;;;4998510;28;20108;-67
2023/12/05 10:28:01;;;;;;;40.33;18.02;;;;;;;;;;4976752;28;20082;-67
2023/12/05 10:30:47;;;;;;;47.25;19.05;;;;;;;;;;4974006;28;20492;-67
2023/12/05 10:33:32;;;;;;;51.90;20.02;;;;;;;;;;4988872;28;20034;-67
2023/12/05 10:36:18;;;;;;;43.75;18.80;;;;;;;;;;4992542;28;20041;-67
2023/12/05 10:39:05;;;;;;;49.40;19.95;;;;;;;;;;4992829;28;20018;-67
2023/12/05 10:41:51;;;;;;;56.60;21.10;;;;;;;;;;5000937;28;20026;-67
2023/12/05 10:44:38;;;;;;;46.10;20.05;;;;;;;;;;4998135;28;20022;-67
2023/12/05 10:47:26;;;;;;;43.90;18.83;;;;;;;;;;5002975;28;20543;-68
2023/12/05 10:50:12;;;;;;;48.47;20.27;;;;;;;;;;5003049;28;20030;-68
2023/12/05 10:53:01;;;;;;;46.90;19.80;;;;;;;;;;5002457;28;20033;-68
2023/12/05 10:55:47;;;;;;;48.25;19.73;;;;;;;;;;5014719;28;20038;-67
2023/12/05 10:58:33;;;;;;;43.30;19.02;;;;;;;;;;5017352;28;20546;-68
2023/12/05 11:01:21;;;;;;;44.25;17.83;;;;;;;;;;5016534;28;20026;-68
2023/12/05 11:04:07;;;;;;;52.88;19.52;;;;;;;;;;5016024;28;20033;-67
2023/12/05 11:06:53;;;;;;;48.30;20.75;;;;;;;;;;5016079;28;20030;-68
2023/12/05 11:09:42;;;;;;;43.70;20.08;;;;;;;;;;4996032;28;20057;-68
2023/12/05 11:12:28;;;;;;;50.30;20.38;;;;;;;;;;4981638;28;20027;-68
2023/12/05 11:15:16;;;;;;;51.55;20.17;;;;;;;;;;4995463;28;20018;-68
2023/12/05 11:18:12;;;;;;;47.38;18.17;;;;;;;;;;4986999;28;20116;-68
2023/12/05 11:21:04;;;;;;;49.88;20.50;;;;;;;;;;4989850;28;20034;-68
2023/12/05 11:24:08;;;;;;;49.53;21.35;;;;;;;;;;5001856;28;20053;-68
2023/12/05 11:27:32;;;;;;;50.15;20.20;;;;;;;;;;5002506;28;20026;-68
2023/12/05 11:30:37;;;;;;;43.97;19.40;;;;;;;;;;4984694;28;20519;-68
2023/12/05 11:33:41;;;;;;;40.67;17.92;;;;;;;;;;4997233;28;20023;-68
2023/12/05 11:36:34;;;;;;;49.55;20.38;;;;;;;;;;4996042;28;20053;-68
2023/12/05 11:39:20;;;;;;;45.67;20.20;;;;;;;;;;4982467;28;20523;-68
2023/12/05 11:42:10;;;;;;;48.22;19.90;;;;;;;;;;4970806;28;20550;-68
2023/12/05 11:44:56;;;;;;;52.33;19.67;;;;;;;;;;4983129;28;20037;-67
2023/12/05 11:47:41;;;;;;;45.85;20.92;;;;;;;;;;5013415;28;20026;-67
2023/12/05 11:50:47;;;;;;;43.90;20.27;;;;;;;;;;5015787;28;20022;-67
2023/12/05 11:53:33;;;;;;;43.40;19.35;;;;;;;;;;5001389;28;20051;-67
2023/12/05 11:56:19;;;;;;;47.72;18.10;;;;;;;;;;5013667;28;20112;-67
2023/12/05 11:59:13;;;;;;;55.53;19.92;;;;;;;;;;5016131;28;20029;-68
2023/12/05 12:01:59;;;;;;;42.55;18.80;;;;;;;;;;5008445;28;20025;-67
2023/12/05 12:04:46;;;;;;;47.88;19.75;;;;;;;;;;4996265;28;20058;-67
2023/12/05 12:07:32;;;;;;;47.75;20.15;;;;;;;;;;4980236;28;20026;-67
2023/12/05 12:10:19;;;;;;;44.80;19.40;;;;;;;;;;4968538;28;20034;-67
2023/12/05 12:13:05;;;;;;;46.08;19.25;;;;;;;;;;5000751;28;20021;-68
2023/12/05 12:15:50;;;;;;;52.28;20.90;;;;;;;;;;5000832;28;20123;-68
2023/12/05 12:18:36;;;;;;;53.10;21.98;;;;;;;;;;4996976;28;20399;-67
2023/12/05 12:21:28;;;;;;;53.03;18.85;;;;;;;;;;4994784;28;20026;-68
2023/12/05 12:24:22;;;;;;;45.45;18.83;;;;;;;;;;4981404;28;20022;-67
2023/12/05 12:27:07;;;;;;;48.38;21.38;;;;;;;;;;4981588;28;20022;-67
2023/12/05 12:29:53;;;;;;;43.85;20.08;;;;;;;;;;4995108;28;20049;-67
2023/12/05 12:33:04;;;;;;;44.88;19.17;;;;;;;;;;4981837;28;20026;-68
2023/12/05 12:35:50;;;;;;;50.92;20.13;;;;;;;;;;5016125;23;20080;-70
2023/12/05 12:38:36;;;;;;;54.40;21.25;;;;;;;;;;5033721;28;20120;-70
2023/12/05 12:41:22;;;;;;;47.45;19.23;;;;;;;;;;5035752;28;20026;-69
2023/12/05 12:44:12;;;;;;;50.28;19.27;;;;;;;;;;5019952;28;20375;-70
2023/12/05 12:46:58;;;;;;;58.53;19.65;;;;;;;;;;5001236;28;20113;-69
2023/12/05 12:49:43;;;;;;;49.53;22.73;;;;;;;;;;5015286;28;20076;-69
2023/12/05 12:52:29;;;;;;;56.30;21.08;;;;;;;;;;5000468;28;20029;-69
2023/12/05 12:55:16;;;;;;;51.45;19.48;;;;;;;;;;5013979;28;20022;-69
2023/12/05 12:58:05;;;;;;;52.25;20.70;;;;;;;;;;5000265;28;20480;-69
2023/12/05 13:00:50;;;;;;;49.10;21.65;;;;;;;;;;5015435;28;20030;-69
2023/12/05 13:03:36;;;;;;;49.22;21.20;;;;;;;;;;5014425;28;20039;-69
2023/12/05 13:06:22;;;;;;;47.88;22.73;;;;;;;;;;5013925;28;20168;-69
2023/12/05 13:09:15;;;;;;;51.03;21.17;;;;;;;;;;4999968;28;20025;-69
2023/12/05 13:12:01;;;;;;;46.28;21.25;;;;;;;;;;5000762;28;20026;-69
2023/12/05 13:14:50;;;;;;;58.47;20.48;;;;;;;;;;5014851;28;20061;-69
2023/12/05 13:17:39;;;;;;;54.33;22.30;;;;;;;;;;5013489;28;20038;-69
2023/12/05 13:20:25;;;;;;;44.28;19.13;;;;;;;;;;5014447;28;20026;-69
2023/12/05 13:23:11;;;;;;;52.30;19.48;;;;;;;;;;5014745;28;20053;-69
2023/12/05 13:25:57;;;;;;;52.03;21.05;;;;;;;;;;5013980;28;20026;-69
2023/12/05 13:28:43;;;;;;;46.28;20.35;;;;;;;;;;5014590;28;20030;-69
2023/12/05 13:31:29;;;;;;;51.25;17.42;;;;;;;;;;5014284;28;20470;-69
2023/12/05 13:34:15;;;;;;;47.30;19.23;;;;;;;;;;5014470;28;20076;-69
2023/12/05 13:37:00;;;;;;;49.17;17.85;;;;;;;;;;5000195;28;20492;-69
2023/12/05 13:39:46;;;;;;;48.33;23.17;;;;;;;;;;5013188;28;20041;-70
2023/12/05 13:42:33;;;;;;;46.88;18.17;;;;;;;;;;5014162;28;20088;-70
2023/12/05 13:45:18;;;;;;;46.47;19.13;;;;;;;;;;5014251;28;20112;-70
2023/12/05 13:48:06;;;;;;;39.28;16.67;;;;;;;;;;5013583;28;20083;-69
2023/12/05 13:50:51;;;;;;;40.95;17.38;;;;;;;;;;5013941;28;20033;-69
2023/12/05 13:53:37;;;;;;;36.33;16.35;;;;;;;;;;5010720;28;20406;-69
2023/12/05 13:56:23;;;;;;;37.80;15.55;;;;;;;;;;4975122;28;20030;-69
2023/12/05 13:59:08;;;;;;;36.33;15.63;;;;;;;;;;5012521;28;20017;-69
2023/12/05 14:01:54;;;;;;;26.25;13.07;;;;;;;;;;5013395;28;20025;-69
2023/12/05 14:04:40;;;;;;;34.00;13.63;;;;;;;;;;5013839;28;20057;-69
2023/12/05 14:07:26;;;;;;;32.42;15.57;;;;;;;;;;4999165;28;20087;-69
2023/12/05 14:10:12;;;;;;;31.17;15.20;;;;;;;;;;5011135;28;20080;-69
2023/12/05 14:12:58;;;;;;;30.13;13.68;;;;;;;;;;5009690;28;20026;-69
2023/12/05 14:15:43;;;;;;;40.33;14.63;;;;;;;;;;5011102;28;20490;-70
2023/12/05 14:18:29;;;;;;;31.85;13.65;;;;;;;;;;5011901;28;20076;-69
2023/12/05 14:21:14;;;;;;;30.42;13.70;;;;;;;;;;5012625;28;20026;-69
2023/12/05 14:24:00;;;;;;;34.67;13.93;;;;;;;;;;4999042;28;20026;-69
2023/12/05 14:26:46;;;;;;;32.20;12.88;;;;;;;;;;4993587;28;20396;-69
2023/12/05 14:29:31;;;;;;;38.50;15.07;;;;;;;;;;5011521;28;20026;-69
2023/12/05 14:32:17;;;;;;;33.35;14.13;;;;;;;;;;5012447;28;20037;-69
2023/12/05 14:35:05;;;;;;;30.45;14.95;;;;;;;;;;4996910;28;20029;-70
2023/12/05 14:37:51;;;;;;;34.10;15.63;;;;;;;;;;4993477;28;20097;-69
2023/12/05 14:40:37;;;;;;;32.95;14.25;;;;;;;;;;5004789;28;20045;-69
2023/12/05 14:43:22;;;;;;;39.85;16.13;;;;;;;;;;5010633;28;20030;-69
2023/12/05 14:46:08;;;;;;;31.52;14.68;;;;;;;;;;4993651;28;20435;-70
2023/12/05 14:48:54;;;;;;;36.40;15.50;;;;;;;;;;4984691;28;20117;-69
2023/12/05 14:51:40;;;;;;;35.25;15.48;;;;;;;;;;5012658;28;20483;-69
2023/12/05 14:54:26;;;;;;;44.92;15.68;;;;;;;;;;5012831;28;20475;-69
2023/12/05 14:57:12;;;;;;;35.50;14.68;;;;;;;;;;4996711;28;20100;-70
2023/12/05 14:59:58;;;;;;;32.80;13.95;;;;;;;;;;5012542;28;20030;-70
2023/12/05 15:02:43;;;;;;;34.92;14.93;;;;;;;;;;5012512;28;20054;-70
2023/12/05 15:05:29;;;;;;;33.47;14.50;;;;;;;;;;5013163;28;20108;-70
2023/12/05 15:08:14;;;;;;;35.00;15.25;;;;;;;;;;5011426;28;20109;-69
2023/12/05 15:11:00;;;;;;;35.72;15.60;;;;;;;;;;4993501;28;20027;-69
2023/12/05 15:13:46;;;;;;;37.08;17.10;;;;;;;;;;5007121;28;20056;-73
2023/12/05 15:16:31;;;;;;;35.95;15.63;;;;;;;;;;4997932;28;20057;-72
2023/12/05 15:19:17;;;;;;;34.95;14.73;;;;;;;;;;5012861;28;20138;-71
2023/12/05 15:22:03;;;;;;;30.58;13.75;;;;;;;;;;5014243;28;20415;-71
2023/12/05 15:24:48;;;;;;;34.67;17.17;;;;;;;;;;5005862;28;20487;-71
2023/12/05 15:27:34;;;;;;;46.30;16.63;;;;;;;;;;5011998;28;20454;-71
2023/12/05 15:30:20;;;;;;;40.05;17.35;;;;;;;;;;4997958;28;20403;-71
2023/12/05 15:33:06;;;;;;;49.25;20.23;;;;;;;;;;5000967;28;20026;-71
2023/12/05 15:35:52;;;;;;;35.72;16.33;;;;;;;;;;5016903;28;20112;-71
2023/12/05 15:38:38;;;;;;;34.83;16.90;;;;;;;;;;5016470;28;20392;-71
2023/12/05 15:41:23;;;;;;;41.05;15.77;;;;;;;;;;4993834;28;20057;-71
2023/12/05 15:44:09;;;;;;;37.25;16.75;;;;;;;;;;5016541;28;20056;-71
2023/12/05 15:46:56;;;;;;;35.05;15.68;;;;;;;;;;5014159;28;20030;-71
2023/12/05 15:49:42;;;;;;;37.95;14.80;;;;;;;;;;5015842;28;20030;-71
2023/12/05 15:52:28;;;;;;;32.30;16.73;;;;;;;;;;5001856;28;20430;-71
2023/12/05 15:55:13;;;;;;;33.55;17.10;;;;;;;;;;4983393;28;20113;-72
2023/12/05 15:58:00;;;;;;;42.88;19.08;;;;;;;;;;4995462;28;20026;-72
2023/12/05 16:00:45;;;;;;;35.13;16.48;;;;;;;;;;4995758;28;20056;-71
2023/12/05 16:03:31;;;;;;;42.53;18.27;;;;;;;;;;4996627;28;20101;-71
2023/12/05 16:06:17;;;;;;;42.38;18.83;;;;;;;;;;4996190;28;20026;-71
2023/12/05 16:09:04;;;;;;;40.65;16.33;;;;;;;;;;4997163;28;20028;-71
2023/12/05 16:11:50;;;;;;;42.28;19.33;;;;;;;;;;4996563;28;20033;-71
2023/12/05 16:14:36;;;;;;;36.85;16.15;;;;;;;;;;4995956;28;20018;-72